Time;durP1;ratioP1;P1;durP2;ratioP2;P2;SDS_P1;SDS_P2;PMS_P1;PMS_P2;Temp;Humidity;BMP_temperature;BMP_pressure;BME280_temperature;BME280_humidity;BME280_pressure;Samples;Min_cycle;Max_cycle;Signal;HPM_P1;HPM_P2
2022/05/07 00:00:10;;;;;;;;;3.00;3.00;;;;;;;;4997049;28;45709;-74
2022/05/07 00:02:35;;;;;;;;;5.00;3.75;;;;;;;;4996961;28;46395;-74
2022/05/07 00:05:00;;;;;;;;;5.50;3.00;;;;;;;;4981788;28;45425;-74
2022/05/07 00:07:26;;;;;;;;;4.00;3.50;;;;;;;;4997758;28;45523;-73
2022/05/07 00:09:51;;;;;;;;;4.25;4.25;;;;;;;;4989936;28;45514;-74
2022/05/07 00:12:16;;;;;;;;;3.25;2.75;;;;;;;;4999647;28;46355;-74
2022/05/07 00:14:41;;;;;;;;;3.50;2.75;;;;;;;;4996141;28;45440;-73
2022/05/07 00:44:12;;;;;;;;;1.00;1.00;;;;;;;;4980840;28;45373;-73
2022/05/07 00:46:37;;;;;;;;;2.75;2.75;;;;;;;;4996817;28;45460;-73
2022/05/07 00:49:03;;;;;;;;;5.00;3.75;;;;;;;;4985402;28;45389;-73
2022/05/07 00:51:34;;;;;;;;;4.25;3.75;;;;;;;;4991384;28;45393;-74
2022/05/07 00:54:02;;;;;;;;;3.50;3.50;;;;;;;;4994605;28;45464;-74
2022/05/07 00:56:27;;;;;;;;;4.00;4.00;;;;;;;;4996291;28;47412;-74
2022/05/07 00:58:52;;;;;;;;;4.00;4.00;;;;;;;;4990811;28;45590;-74
2022/05/07 01:01:17;;;;;;;;;2.50;2.50;;;;;;;;4992520;28;45506;-74
2022/05/07 01:03:44;;;;;;;;;3.00;3.00;;;;;;;;4987738;28;45502;-74
2022/05/07 01:06:09;;;;;;;;;3.00;3.00;;;;;;;;4995540;28;47156;-74
2022/05/07 01:08:35;;;;;;;;;2.00;2.00;;;;;;;;4995301;28;45546;-73
2022/05/07 01:11:01;;;;;;;;;4.00;4.00;;;;;;;;4995878;28;45466;-74
2022/05/07 01:13:27;;;;;;;;;2.50;2.50;;;;;;;;4996445;28;45333;-74
2022/05/07 01:15:56;;;;;;;;;3.00;3.00;;;;;;;;4987145;28;46358;-73
2022/05/07 01:18:22;;;;;;;;;2.75;2.75;;;;;;;;4989961;28;45294;-74
2022/05/07 01:20:47;;;;;;;;;4.00;3.00;;;;;;;;4984620;28;45395;-74
2022/05/07 01:23:12;;;;;;;;;5.00;3.25;;;;;;;;4995286;28;45368;-74
2022/05/07 01:25:37;;;;;;;;;3.75;3.00;;;;;;;;4993429;28;45366;-73
2022/05/07 01:28:03;;;;;;;;;4.00;4.00;;;;;;;;4997095;28;45318;-74
2022/05/07 01:30:28;;;;;;;;;3.00;3.00;;;;;;;;4995278;28;45360;-73
2022/05/07 01:32:54;;;;;;;;;5.50;3.00;;;;;;;;4996252;28;45364;-74
2022/05/07 01:35:19;;;;;;;;;4.00;4.00;;;;;;;;5009872;28;45570;-74
2022/05/07 01:37:44;;;;;;;;;2.50;2.50;;;;;;;;5006966;28;45467;-74
2022/05/07 01:40:11;;;;;;;;;2.25;2.25;;;;;;;;4983659;28;45619;-74
2022/05/07 01:42:36;;;;;;;;;4.00;4.00;;;;;;;;4984201;28;45552;-74
2022/05/07 01:45:01;;;;;;;;;3.25;3.25;;;;;;;;4986844;28;45676;-74
2022/05/07 01:50:10;;;;;;;;;3.25;3.25;;;;;;;;5007218;28;45376;-74
2022/05/07 01:52:36;;;;;;;;;3.00;3.00;;;;;;;;4991394;28;45203;-74
2022/05/07 01:55:01;;;;;;;;;5.00;3.00;;;;;;;;4984123;28;45457;-73
2022/05/07 01:57:26;;;;;;;;;3.00;3.00;;;;;;;;4991100;28;45447;-73
2022/05/07 01:59:51;;;;;;;;;4.00;4.00;;;;;;;;4995156;28;45352;-74
2022/05/07 02:02:17;;;;;;;;;3.00;3.00;;;;;;;;4995119;28;45285;-74
2022/05/07 02:04:42;;;;;;;;;3.00;3.00;;;;;;;;4979479;28;46193;-74
2022/05/07 02:07:07;;;;;;;;;4.50;3.50;;;;;;;;4995527;28;45323;-74
2022/05/07 02:09:33;;;;;;;;;3.00;3.00;;;;;;;;4991832;28;46866;-74
2022/05/07 02:11:58;;;;;;;;;4.25;4.25;;;;;;;;4997038;28;45427;-73
2022/05/07 02:14:23;;;;;;;;;3.00;3.00;;;;;;;;4994966;28;45411;-74
2022/05/07 02:16:48;;;;;;;;;3.00;3.00;;;;;;;;4994890;28;45924;-73
2022/05/07 02:19:13;;;;;;;;;5.00;3.75;;;;;;;;4983344;28;45385;-73
2022/05/07 02:21:39;;;;;;;;;4.00;4.00;;;;;;;;4993775;28;45456;-73
2022/05/07 02:24:04;;;;;;;;;3.00;3.00;;;;;;;;4993209;28;47621;-73
2022/05/07 02:26:29;;;;;;;;;3.50;3.50;;;;;;;;5000277;28;45425;-74
2022/05/07 02:28:54;;;;;;;;;3.25;3.25;;;;;;;;4995514;28;46141;-74
2022/05/07 02:31:20;;;;;;;;;2.50;2.50;;;;;;;;4995651;28;45221;-73
2022/05/07 02:33:45;;;;;;;;;5.75;4.00;;;;;;;;4986078;28;46564;-73
2022/05/07 02:36:10;;;;;;;;;3.75;3.50;;;;;;;;4987910;28;45334;-73
2022/05/07 02:38:38;;;;;;;;;6.25;3.50;;;;;;;;4994988;28;45428;-73
2022/05/07 02:43:47;;;;;;;;;4.75;3.00;;;;;;;;4995258;28;45829;-74
2022/05/07 02:46:12;;;;;;;;;5.00;3.00;;;;;;;;4998509;28;45332;-73
2022/05/07 02:48:38;;;;;;;;;4.75;4.75;;;;;;;;4992360;28;48140;-73
2022/05/07 02:51:03;;;;;;;;;4.00;4.00;;;;;;;;4998001;28;45607;-74
2022/05/07 02:53:28;;;;;;;;;2.75;2.75;;;;;;;;4996705;28;47036;-74
2022/05/07 02:55:53;;;;;;;;;3.25;3.25;;;;;;;;4982107;28;45348;-73
2022/05/07 02:58:18;;;;;;;;;3.75;3.75;;;;;;;;4993628;28;45464;-73
2022/05/07 03:00:44;;;;;;;;;4.00;3.75;;;;;;;;4993548;28;45582;-74
2022/05/07 03:03:09;;;;;;;;;3.00;3.00;;;;;;;;4999213;28;47155;-74
2022/05/07 03:05:34;;;;;;;;;2.00;2.00;;;;;;;;4994688;28;45654;-73
2022/05/07 03:08:00;;;;;;;;;3.25;3.25;;;;;;;;5008489;28;45413;-74
2022/05/07 03:10:25;;;;;;;;;3.00;3.00;;;;;;;;4993845;28;45468;-74
2022/05/07 03:12:53;;;;;;;;;4.25;4.25;;;;;;;;4999087;28;45578;-74
2022/05/07 03:15:19;;;;;;;;;3.25;3.00;;;;;;;;4992690;28;45423;-74
2022/05/07 03:17:44;;;;;;;;;5.00;2.00;;;;;;;;4996988;28;45396;-74
2022/05/07 03:20:12;;;;;;;;;2.25;2.25;;;;;;;;4981833;28;45504;-73
2022/05/07 03:22:39;;;;;;;;;3.00;3.00;;;;;;;;4993798;28;46428;-74
2022/05/07 03:25:04;;;;;;;;;4.75;4.00;;;;;;;;4986278;28;45403;-74
2022/05/07 03:27:32;;;;;;;;;4.25;4.25;;;;;;;;4986266;28;45547;-74
2022/05/07 03:29:57;;;;;;;;;3.25;3.25;;;;;;;;4991709;28;45781;-74
2022/05/07 03:32:22;;;;;;;;;5.50;4.00;;;;;;;;4995260;28;47317;-73
2022/05/07 03:34:47;;;;;;;;;2.00;2.00;;;;;;;;4994193;28;45485;-74
2022/05/07 03:37:13;;;;;;;;;3.50;3.50;;;;;;;;5000865;28;45372;-74
2022/05/07 03:39:38;;;;;;;;;4.00;4.00;;;;;;;;4990864;28;45266;-74
2022/05/07 03:42:03;;;;;;;;;3.00;3.00;;;;;;;;4994097;28;46330;-74
2022/05/07 03:44:28;;;;;;;;;4.00;4.00;;;;;;;;4984175;28;45377;-74
2022/05/07 03:46:54;;;;;;;;;4.00;3.25;;;;;;;;5007049;28;45380;-74
2022/05/07 03:49:19;;;;;;;;;4.00;4.00;;;;;;;;4997137;28;45502;-74
2022/05/07 03:54:28;;;;;;;;;4.00;4.00;;;;;;;;4996740;28;45382;-74
2022/05/07 03:56:53;;;;;;;;;4.00;4.00;;;;;;;;4996654;28;45412;-74
2022/05/07 03:59:20;;;;;;;;;3.00;3.00;;;;;;;;4997094;28;45195;-73
2022/05/07 04:01:45;;;;;;;;;4.00;4.00;;;;;;;;4995561;28;46487;-74
2022/05/07 04:04:10;;;;;;;;;4.00;4.00;;;;;;;;4984903;28;45322;-74
2022/05/07 04:06:35;;;;;;;;;4.50;4.50;;;;;;;;4988716;28;45275;-73
2022/05/07 04:09:01;;;;;;;;;3.25;3.25;;;;;;;;4996697;28;45512;-74
2022/05/07 04:11:26;;;;;;;;;4.25;4.00;;;;;;;;5005636;28;46326;-74
2022/05/07 04:13:51;;;;;;;;;4.25;3.00;;;;;;;;4988436;28;48979;-73
2022/05/07 04:16:17;;;;;;;;;4.50;3.00;;;;;;;;4991735;28;45346;-74
2022/05/07 04:18:42;;;;;;;;;3.50;3.50;;;;;;;;4994951;28;45570;-73
2022/05/07 04:21:07;;;;;;;;;3.50;3.50;;;;;;;;4996311;28;46052;-73
2022/05/07 04:23:32;;;;;;;;;3.00;3.00;;;;;;;;4996795;28;45305;-73
2022/05/07 04:25:58;;;;;;;;;5.50;3.00;;;;;;;;4996589;28;45342;-74
2022/05/07 04:28:23;;;;;;;;;4.25;4.25;;;;;;;;4983952;28;45430;-74
2022/05/07 04:30:48;;;;;;;;;3.75;3.75;;;;;;;;4984692;28;46267;-73
2022/05/07 04:33:16;;;;;;;;;4.25;3.75;;;;;;;;4980015;28;45369;-73
2022/05/07 04:35:42;;;;;;;;;6.75;4.00;;;;;;;;4983153;28;45384;-73
2022/05/07 04:38:07;;;;;;;;;4.25;4.00;;;;;;;;4995378;28;45622;-74
2022/05/07 04:40:32;;;;;;;;;3.25;3.25;;;;;;;;4990490;28;46191;-74
2022/05/07 04:42:57;;;;;;;;;5.50;4.75;;;;;;;;4994298;28;45709;-73
2022/05/07 04:45:23;;;;;;;;;3.75;3.25;;;;;;;;5001302;28;45582;-73
2022/05/07 04:47:48;;;;;;;;;4.50;4.00;;;;;;;;4996001;28;45459;-74
2022/05/07 04:50:13;;;;;;;;;4.00;4.00;;;;;;;;4996441;28;45466;-74
2022/05/07 04:52:39;;;;;;;;;4.00;4.00;;;;;;;;5006000;28;45369;-73
2022/05/07 04:55:04;;;;;;;;;4.00;4.00;;;;;;;;4999217;28;45408;-73
2022/05/07 04:57:30;;;;;;;;;3.75;3.75;;;;;;;;5000880;28;45391;-73
2022/05/07 04:59:55;;;;;;;;;5.00;5.00;;;;;;;;4993781;28;45501;-74
2022/05/07 05:02:21;;;;;;;;;4.00;4.00;;;;;;;;4988666;28;45388;-74
2022/05/07 05:04:46;;;;;;;;;4.25;4.25;;;;;;;;4998307;28;45297;-74
2022/05/07 05:07:11;;;;;;;;;4.00;4.00;;;;;;;;4992449;28;45436;-74
2022/05/07 05:09:36;;;;;;;;;5.25;3.25;;;;;;;;4988598;28;45506;-74
2022/05/07 05:12:02;;;;;;;;;4.00;4.00;;;;;;;;4987069;28;45741;-73
2022/05/07 05:17:11;;;;;;;;;4.50;4.50;;;;;;;;4990574;28;45417;-74
2022/05/07 05:19:36;;;;;;;;;5.00;4.00;;;;;;;;4990664;28;46557;-73
2022/05/07 05:22:02;;;;;;;;;3.00;3.00;;;;;;;;4984950;28;45306;-73
2022/05/07 05:24:27;;;;;;;;;3.00;3.00;;;;;;;;4984418;28;45479;-74
2022/05/07 05:26:53;;;;;;;;;5.25;4.00;;;;;;;;4997266;28;45507;-74
2022/05/07 05:29:18;;;;;;;;;4.25;4.25;;;;;;;;4995345;28;45424;-74
2022/05/07 05:31:43;;;;;;;;;3.25;3.25;;;;;;;;4996086;28;45301;-74
2022/05/07 05:34:09;;;;;;;;;4.00;4.00;;;;;;;;4995241;28;45479;-74
2022/05/07 05:36:34;;;;;;;;;4.50;4.50;;;;;;;;4997520;28;45590;-74
2022/05/07 05:38:59;;;;;;;;;3.75;3.75;;;;;;;;5004419;28;46210;-73
2022/05/07 05:41:25;;;;;;;;;2.75;2.75;;;;;;;;5003874;28;45655;-74
2022/05/07 05:43:50;;;;;;;;;2.50;2.50;;;;;;;;4995522;28;45418;-74
2022/05/07 05:46:15;;;;;;;;;3.75;3.75;;;;;;;;4986299;28;45503;-73
2022/05/07 05:48:40;;;;;;;;;4.25;4.25;;;;;;;;4987450;28;46158;-73
2022/05/07 05:51:07;;;;;;;;;5.00;4.25;;;;;;;;4994442;28;48022;-74
2022/05/07 05:53:32;;;;;;;;;3.25;3.25;;;;;;;;4995665;28;45344;-73
2022/05/07 05:55:59;;;;;;;;;5.75;4.00;;;;;;;;4993035;28;45543;-73
2022/05/07 05:58:24;;;;;;;;;4.00;4.00;;;;;;;;5008180;28;45409;-73
2022/05/07 06:00:52;;;;;;;;;3.00;3.00;;;;;;;;4992733;28;45301;-73
2022/05/07 06:03:17;;;;;;;;;3.00;3.00;;;;;;;;4993737;28;45578;-73
2022/05/07 06:05:43;;;;;;;;;3.75;3.75;;;;;;;;4990533;28;45373;-74
2022/05/07 06:08:08;;;;;;;;;4.50;3.00;;;;;;;;4994738;28;46483;-73
2022/05/07 06:10:33;;;;;;;;;4.25;4.25;;;;;;;;5003436;28;45377;-74
2022/05/07 06:12:58;;;;;;;;;3.75;3.75;;;;;;;;4994612;28;45429;-73
2022/05/07 06:15:24;;;;;;;;;4.75;4.75;;;;;;;;4994906;28;45554;-73
2022/05/07 06:17:49;;;;;;;;;3.25;3.25;;;;;;;;4993927;28;47377;-73
2022/05/07 06:20:14;;;;;;;;;2.25;2.25;;;;;;;;4985799;28;45523;-73
2022/05/07 06:22:39;;;;;;;;;4.25;4.25;;;;;;;;4998958;28;45486;-73
2022/05/07 06:27:48;;;;;;;;;3.00;3.00;;;;;;;;4994110;28;45551;-73
2022/05/07 06:30:14;;;;;;;;;6.25;4.75;;;;;;;;4995249;28;45338;-73
2022/05/07 06:32:42;;;;;;;;;4.75;4.75;;;;;;;;4994793;28;45282;-73
2022/05/07 06:35:09;;;;;;;;;4.00;4.00;;;;;;;;4992716;28;45270;-74
2022/05/07 06:37:35;;;;;;;;;4.00;3.00;;;;;;;;4994762;28;45436;-73
2022/05/07 06:40:01;;;;;;;;;3.25;3.25;;;;;;;;4987974;28;45574;-73
2022/05/07 06:42:27;;;;;;;;;4.25;4.25;;;;;;;;4994013;28;45344;-74
2022/05/07 06:44:52;;;;;;;;;3.25;3.25;;;;;;;;4992861;28;45464;-73
2022/05/07 06:47:18;;;;;;;;;5.25;4.25;;;;;;;;4994363;28;45504;-73
2022/05/07 06:49:43;;;;;;;;;5.00;5.00;;;;;;;;4996518;28;45368;-73
2022/05/07 06:52:08;;;;;;;;;3.00;3.00;;;;;;;;4990696;28;45376;-73
2022/05/07 06:54:33;;;;;;;;;3.75;3.25;;;;;;;;4993699;28;45374;-74
2022/05/07 06:56:59;;;;;;;;;3.25;3.25;;;;;;;;4992288;28;47135;-74
2022/05/07 06:59:24;;;;;;;;;3.00;3.00;;;;;;;;5007464;28;45720;-73
2022/05/07 07:01:49;;;;;;;;;4.00;4.00;;;;;;;;4986419;28;45274;-74
2022/05/07 07:04:14;;;;;;;;;3.75;3.75;;;;;;;;4994737;28;45466;-73
2022/05/07 07:06:40;;;;;;;;;4.00;4.00;;;;;;;;4989880;28;45472;-73
2022/05/07 07:09:05;;;;;;;;;3.25;3.25;;;;;;;;4996072;28;45495;-74
2022/05/07 07:11:31;;;;;;;;;3.00;3.00;;;;;;;;5003952;28;45497;-73
2022/05/07 07:13:56;;;;;;;;;5.00;5.00;;;;;;;;4976719;28;45596;-73
2022/05/07 07:16:22;;;;;;;;;5.50;5.50;;;;;;;;4979589;28;45395;-73
2022/05/07 07:18:47;;;;;;;;;3.00;3.00;;;;;;;;4990866;28;45343;-73
2022/05/07 07:21:12;;;;;;;;;6.75;5.50;;;;;;;;4994130;28;45372;-73
2022/05/07 07:23:38;;;;;;;;;3.00;3.00;;;;;;;;4994017;28;45251;-74
2022/05/07 07:26:04;;;;;;;;;4.75;4.25;;;;;;;;4995460;28;45488;-74
2022/05/07 07:28:31;;;;;;;;;4.00;4.00;;;;;;;;4983978;28;45283;-72
2022/05/07 07:30:57;;;;;;;;;5.00;4.00;;;;;;;;4987673;28;45370;-75
2022/05/07 07:33:23;;;;;;;;;5.50;4.00;;;;;;;;4991973;28;45317;-75
2022/05/07 07:35:48;;;;;;;;;3.00;3.00;;;;;;;;4996596;28;46834;-74
2022/05/07 07:38:14;;;;;;;;;4.00;3.00;;;;;;;;5009332;28;46551;-76
2022/05/07 07:40:39;;;;;;;;;5.50;4.25;;;;;;;;4991359;28;45374;-75
2022/05/07 07:43:04;;;;;;;;;5.00;5.00;;;;;;;;4991024;28;45257;-76
2022/05/07 07:48:14;;;;;;;;;4.00;3.00;;;;;;;;4998297;28;45541;-76
2022/05/07 07:50:39;;;;;;;;;3.00;3.00;;;;;;;;4993227;28;45463;-75
2022/05/07 07:53:06;;;;;;;;;5.25;3.50;;;;;;;;4996414;28;45584;-73
2022/05/07 07:55:31;;;;;;;;;4.75;3.00;;;;;;;;4996106;28;46134;-76
2022/05/07 07:57:57;;;;;;;;;4.00;4.00;;;;;;;;4993547;28;45705;-76
2022/05/07 08:00:23;;;;;;;;;3.75;3.75;;;;;;;;4994452;28;45452;-76
2022/05/07 08:02:50;;;;;;;;;7.50;4.00;;;;;;;;4995149;28;45450;-77
2022/05/07 08:05:17;;;;;;;;;3.75;3.75;;;;;;;;4988160;28;45277;-77
2022/05/07 08:13:10;;;;;;;;;11.25;10.00;;;;;;;;4996892;28;45454;-79
2022/05/07 08:15:35;;;;;;;;;11.00;9.75;;;;;;;;4996728;28;46353;-79
2022/05/07 08:18:00;;;;;;;;;10.25;8.50;;;;;;;;4996925;28;45444;-79
2022/05/07 08:20:26;;;;;;;;;11.00;9.75;;;;;;;;4996795;28;45527;-77
2022/05/07 08:22:51;;;;;;;;;10.75;10.00;;;;;;;;4995608;28;45507;-83
2022/05/07 08:25:16;;;;;;;;;12.00;11.25;;;;;;;;4996981;28;45573;-72
2022/05/07 08:27:41;;;;;;;;;11.00;10.75;;;;;;;;4991516;28;45992;-73
2022/05/07 08:30:07;;;;;;;;;13.25;10.75;;;;;;;;4995931;28;45428;-71
2022/05/07 08:32:32;;;;;;;;;11.50;11.25;;;;;;;;4995068;28;45436;-84
2022/05/07 08:34:57;;;;;;;;;7.50;7.00;;;;;;;;4995664;28;46110;-73
2022/05/07 08:37:23;;;;;;;;;9.75;8.75;;;;;;;;4999866;28;45368;-77
2022/05/07 08:39:48;;;;;;;;;8.00;7.00;;;;;;;;4998680;28;45415;-77
2022/05/07 08:42:14;;;;;;;;;8.00;7.00;;;;;;;;4992449;28;45577;-76
2022/05/07 08:44:39;;;;;;;;;6.25;6.25;;;;;;;;4985532;28;46108;-76
2022/05/07 08:47:04;;;;;;;;;6.50;6.50;;;;;;;;5011246;28;45421;-77
2022/05/07 08:49:30;;;;;;;;;6.00;5.75;;;;;;;;4988435;28;45594;-77
2022/05/07 08:51:55;;;;;;;;;5.00;5.00;;;;;;;;4986744;28;45392;-77
2022/05/07 08:54:20;;;;;;;;;5.00;5.00;;;;;;;;4989242;28;46283;-76
2022/05/07 08:56:45;;;;;;;;;5.25;4.75;;;;;;;;4996627;28;45373;-76
2022/05/07 08:59:10;;;;;;;;;6.75;6.00;;;;;;;;4995991;28;45389;-76
2022/05/07 09:01:36;;;;;;;;;5.50;5.00;;;;;;;;4995501;28;45296;-77
2022/05/07 09:04:10;;;;;;;;;6.25;6.25;;;;;;;;5006136;28;46605;-76
2022/05/07 09:06:36;;;;;;;;;6.50;6.25;;;;;;;;4997841;28;45447;-76
2022/05/07 09:09:04;;;;;;;;;5.75;5.25;;;;;;;;4995186;28;45532;-76
2022/05/07 09:11:37;;;;;;;;;6.00;6.00;;;;;;;;4995028;28;45337;-76
2022/05/07 09:14:04;;;;;;;;;6.00;6.00;;;;;;;;4995983;28;45503;-76
2022/05/07 09:16:37;;;;;;;;;6.25;6.25;;;;;;;;4996709;28;45286;-75
2022/05/07 09:19:02;;;;;;;;;6.25;5.00;;;;;;;;4985164;28;45475;-76
2022/05/07 09:21:27;;;;;;;;;5.50;4.75;;;;;;;;4984288;28;45646;-76
2022/05/07 09:24:05;;;;;;;;;5.25;5.25;;;;;;;;4985280;28;45610;-76
2022/05/07 09:26:32;;;;;;;;;3.75;3.75;;;;;;;;4982736;28;45428;-76
2022/05/07 09:28:58;;;;;;;;;4.50;4.50;;;;;;;;4980081;28;45376;-75
2022/05/07 09:31:28;;;;;;;;;5.50;5.00;;;;;;;;4982996;28;45468;-77
2022/05/07 09:33:54;;;;;;;;;4.00;4.00;;;;;;;;4989222;28;45554;-76
2022/05/07 09:36:19;;;;;;;;;7.00;6.75;;;;;;;;4990402;28;45433;-76
2022/05/07 09:38:47;;;;;;;;;5.75;5.00;;;;;;;;4998460;28;45475;-76
2022/05/07 09:41:19;;;;;;;;;6.00;5.75;;;;;;;;4992961;28;45745;-76
2022/05/07 09:43:45;;;;;;;;;4.50;4.50;;;;;;;;4992159;28;46511;-76
2022/05/07 09:46:11;;;;;;;;;5.25;5.25;;;;;;;;4988988;28;46028;-76
2022/05/07 09:48:38;;;;;;;;;7.75;6.75;;;;;;;;4995397;28;45306;-76
2022/05/07 09:51:03;;;;;;;;;5.25;4.50;;;;;;;;4999544;28;45311;-76
2022/05/07 09:58:56;;;;;;;;;5.00;5.00;;;;;;;;4993753;28;45355;-77
2022/05/07 10:01:25;;;;;;;;;5.25;5.25;;;;;;;;4982667;28;45346;-77
2022/05/07 10:04:05;;;;;;;;;5.50;5.50;;;;;;;;4992547;28;47216;-76
2022/05/07 10:06:49;;;;;;;;;5.25;5.00;;;;;;;;4988687;28;45523;-77
2022/05/07 10:09:21;;;;;;;;;4.00;4.00;;;;;;;;4989975;28;45215;-76
2022/05/07 10:11:50;;;;;;;;;6.00;6.00;;;;;;;;4989378;28;45593;-77
2022/05/07 10:14:23;;;;;;;;;6.00;6.00;;;;;;;;5002071;28;45348;-76
2022/05/07 10:16:55;;;;;;;;;5.00;4.00;;;;;;;;4990437;28;45381;-76
2022/05/07 10:19:20;;;;;;;;;5.00;4.25;;;;;;;;4982292;28;45468;-76
2022/05/07 10:21:55;;;;;;;;;4.00;4.00;;;;;;;;4994659;28;45568;-76
2022/05/07 10:24:20;;;;;;;;;3.75;3.75;;;;;;;;4989882;28;47372;-76
2022/05/07 10:26:45;;;;;;;;;3.50;3.25;;;;;;;;4984095;28;45483;-76
2022/05/07 10:29:26;;;;;;;;;5.25;5.25;;;;;;;;4999460;28;45285;-76
2022/05/07 10:32:01;;;;;;;;;6.00;5.00;;;;;;;;4992642;28;45360;-76
2022/05/07 10:34:27;;;;;;;;;5.00;4.00;;;;;;;;4979683;28;45525;-76
2022/05/07 10:37:06;;;;;;;;;4.75;4.75;;;;;;;;4984362;28;45434;-76
2022/05/07 10:39:31;;;;;;;;;4.00;4.00;;;;;;;;4988506;28;45427;-76
2022/05/07 10:41:57;;;;;;;;;5.75;5.75;;;;;;;;4994101;28;45493;-77
2022/05/07 10:44:33;;;;;;;;;3.75;3.50;;;;;;;;5002320;28;47152;-76
2022/05/07 10:47:07;;;;;;;;;3.25;3.25;;;;;;;;4992077;28;45489;-76
2022/05/07 10:49:33;;;;;;;;;5.25;5.25;;;;;;;;4995156;28;45431;-76
2022/05/07 10:52:02;;;;;;;;;3.75;3.00;;;;;;;;4994359;28;45445;-76
2022/05/07 10:54:27;;;;;;;;;4.50;3.75;;;;;;;;4992382;28;47188;-76
2022/05/07 10:56:54;;;;;;;;;4.25;4.25;;;;;;;;4993342;28;45521;-77
2022/05/07 10:59:22;;;;;;;;;4.25;4.25;;;;;;;;4991479;28;45393;-76
2022/05/07 11:01:48;;;;;;;;;2.25;2.25;;;;;;;;4982858;28;45397;-76
2022/05/07 11:04:14;;;;;;;;;4.00;4.00;;;;;;;;4996869;28;45374;-76
2022/05/07 11:06:39;;;;;;;;;5.00;5.00;;;;;;;;4990554;28;45548;-76
2022/05/07 11:09:05;;;;;;;;;5.75;4.00;;;;;;;;4999079;28;45626;-76
2022/05/07 11:11:30;;;;;;;;;3.75;3.75;;;;;;;;4998160;28;45505;-75
2022/05/07 11:13:55;;;;;;;;;3.00;2.00;;;;;;;;4992370;28;46411;-76
2022/05/07 11:16:21;;;;;;;;;4.00;3.00;;;;;;;;5003564;28;45404;-76
2022/05/07 11:18:50;;;;;;;;;3.75;3.75;;;;;;;;4990715;28;45421;-75
2022/05/07 11:21:16;;;;;;;;;4.50;4.50;;;;;;;;4985981;28;45483;-76
2022/05/07 11:23:44;;;;;;;;;3.25;3.25;;;;;;;;4990686;28;46556;-76
2022/05/07 11:26:13;;;;;;;;;4.25;4.25;;;;;;;;4989187;28;45366;-76
2022/05/07 11:28:39;;;;;;;;;3.00;3.00;;;;;;;;4994171;28;45302;-76
2022/05/07 11:31:05;;;;;;;;;3.75;3.75;;;;;;;;4986791;28;45650;-76
2022/05/07 11:33:30;;;;;;;;;5.00;4.00;;;;;;;;4991386;28;47127;-76
2022/05/07 11:35:59;;;;;;;;;3.50;3.50;;;;;;;;4996140;28;45357;-76
2022/05/07 11:38:24;;;;;;;;;4.75;4.00;;;;;;;;5001473;28;45349;-76
2022/05/07 11:40:50;;;;;;;;;2.75;2.75;;;;;;;;4997211;28;45420;-77
2022/05/07 11:46:06;;;;;;;;;3.75;3.75;;;;;;;;4996050;28;45389;-75
2022/05/07 11:48:31;;;;;;;;;4.00;4.00;;;;;;;;5002191;28;45519;-76
2022/05/07 11:50:59;;;;;;;;;4.25;2.75;;;;;;;;4995291;28;45408;-76
2022/05/07 11:53:28;;;;;;;;;4.25;3.50;;;;;;;;4982902;28;46099;-76
2022/05/07 11:56:03;;;;;;;;;3.00;3.00;;;;;;;;4999541;28;45759;-75
2022/05/07 11:58:29;;;;;;;;;3.50;3.50;;;;;;;;4998933;28;47306;-76
2022/05/07 12:00:57;;;;;;;;;5.00;5.00;;;;;;;;5001968;28;45515;-76
2022/05/07 12:03:23;;;;;;;;;3.25;3.25;;;;;;;;4996675;28;45472;-76
2022/05/07 12:05:50;;;;;;;;;3.67;3.67;;;;;;;;4996209;28;45472;-76
2022/05/07 12:08:16;;;;;;;;;4.00;4.00;;;;;;;;4981936;28;45530;-76
2022/05/07 12:10:42;;;;;;;;;3.75;3.25;;;;;;;;4998391;28;45425;-76
2022/05/07 12:13:08;;;;;;;;;6.00;3.75;;;;;;;;4998597;28;46125;-75
2022/05/07 12:18:19;;;;;;;;;4.25;4.25;;;;;;;;4992139;28;45492;-75
2022/05/07 12:20:44;;;;;;;;;5.00;4.00;;;;;;;;4985203;28;45568;-75
2022/05/07 12:31:22;;;;;;;;;3.50;3.00;;;;;;;;4996726;28;45392;-75
2022/05/07 12:33:47;;;;;;;;;3.00;3.00;;;;;;;;4994570;28;47212;-75
2022/05/07 12:36:12;;;;;;;;;3.00;3.00;;;;;;;;5004223;28;45309;-75
2022/05/07 12:38:37;;;;;;;;;2.75;2.75;;;;;;;;4996071;28;45392;-76
2022/05/07 12:41:02;;;;;;;;;2.00;2.00;;;;;;;;4996711;28;45316;-75
2022/05/07 12:43:28;;;;;;;;;2.75;2.75;;;;;;;;4997361;28;46302;-75
2022/05/07 12:45:53;;;;;;;;;4.00;4.00;;;;;;;;4986356;28;45397;-75
2022/05/07 12:48:19;;;;;;;;;5.00;4.00;;;;;;;;4985547;28;45415;-75
2022/05/07 12:50:46;;;;;;;;;4.50;3.00;;;;;;;;5004141;28;45535;-75
2022/05/07 12:53:12;;;;;;;;;3.75;3.75;;;;;;;;4981555;28;47226;-75
2022/05/07 12:55:37;;;;;;;;;3.75;3.75;;;;;;;;4984131;28;45493;-75
2022/05/07 12:58:04;;;;;;;;;4.00;4.00;;;;;;;;4985752;28;45452;-75
2022/05/07 13:00:29;;;;;;;;;4.00;4.00;;;;;;;;4990559;28;45429;-75
2022/05/07 13:02:59;;;;;;;;;4.75;4.00;;;;;;;;4994502;28;45644;-75
2022/05/07 13:05:25;;;;;;;;;4.25;4.25;;;;;;;;4995515;28;45439;-75
2022/05/07 13:07:50;;;;;;;;;2.75;2.75;;;;;;;;4984833;28;45389;-75
2022/05/07 13:10:16;;;;;;;;;4.25;4.00;;;;;;;;4996639;28;45563;-74
2022/05/07 13:12:41;;;;;;;;;3.50;3.50;;;;;;;;4988200;28;45364;-75
2022/05/07 13:15:06;;;;;;;;;3.00;3.00;;;;;;;;4987352;28;45509;-75
2022/05/07 13:17:32;;;;;;;;;3.00;3.00;;;;;;;;5005514;28;45502;-75
2022/05/07 13:19:57;;;;;;;;;3.50;2.00;;;;;;;;4996378;28;45480;-75
2022/05/07 13:22:22;;;;;;;;;3.00;3.00;;;;;;;;4982968;28;45602;-75
2022/05/07 13:24:48;;;;;;;;;2.67;2.67;;;;;;;;4984734;28;45505;-75
2022/05/07 13:27:13;;;;;;;;;3.00;3.00;;;;;;;;4992176;28;45277;-75
2022/05/07 13:29:38;;;;;;;;;2.00;2.00;;;;;;;;4980640;28;45530;-75
2022/05/07 13:32:04;;;;;;;;;3.25;3.25;;;;;;;;4996027;28;45610;-75
2022/05/07 13:34:32;;;;;;;;;3.00;3.00;;;;;;;;4991830;28;45291;-76
2022/05/07 13:36:57;;;;;;;;;2.50;2.50;;;;;;;;4981712;28;45396;-76
2022/05/07 13:39:22;;;;;;;;;3.00;3.00;;;;;;;;4983394;28;45441;-75
2022/05/07 13:41:47;;;;;;;;;2.25;2.25;;;;;;;;4998042;28;47496;-75
2022/05/07 13:44:13;;;;;;;;;2.00;2.00;;;;;;;;4995565;28;45586;-75
2022/05/07 13:46:38;;;;;;;;;3.75;3.50;;;;;;;;5006065;28;45288;-75
2022/05/07 13:49:04;;;;;;;;;3.00;3.00;;;;;;;;4990355;28;45290;-75
2022/05/07 13:51:30;;;;;;;;;2.00;2.00;;;;;;;;5000400;28;46432;-75
2022/05/07 13:53:56;;;;;;;;;3.00;3.00;;;;;;;;4997900;28;45538;-76
2022/05/07 13:56:22;;;;;;;;;3.00;3.00;;;;;;;;4995323;28;45413;-75
2022/05/07 13:58:47;;;;;;;;;3.50;2.50;;;;;;;;4994955;28;45434;-75
2022/05/07 14:01:12;;;;;;;;;2.00;2.00;;;;;;;;4984079;28;45506;-75
2022/05/07 14:03:37;;;;;;;;;5.00;5.00;;;;;;;;4988177;28;45558;-75
2022/05/07 14:06:04;;;;;;;;;4.00;2.75;;;;;;;;4995362;28;45578;-75
2022/05/07 14:08:29;;;;;;;;;2.00;2.00;;;;;;;;4994843;28;45515;-75
2022/05/07 14:10:54;;;;;;;;;4.00;4.00;;;;;;;;4994811;28;46230;-75
2022/05/07 14:13:20;;;;;;;;;2.00;2.00;;;;;;;;4995215;28;45527;-75
2022/05/07 14:15:45;;;;;;;;;4.00;3.00;;;;;;;;4987498;28;45394;-75
2022/05/07 14:18:10;;;;;;;;;3.00;3.00;;;;;;;;4994640;28;45349;-75
2022/05/07 14:20:35;;;;;;;;;2.25;2.25;;;;;;;;4982093;28;45855;-75
2022/05/07 14:23:01;;;;;;;;;2.00;2.00;;;;;;;;4979249;28;45278;-75
2022/05/07 14:25:26;;;;;;;;;3.00;3.00;;;;;;;;4982210;28;45547;-76
2022/05/07 14:27:51;;;;;;;;;3.00;3.00;;;;;;;;4983901;28;45365;-75
2022/05/07 14:30:16;;;;;;;;;2.25;1.75;;;;;;;;4992930;28;47467;-75
2022/05/07 14:32:42;;;;;;;;;1.50;1.25;;;;;;;;4995064;28;45523;-75
2022/05/07 14:35:09;;;;;;;;;3.75;2.75;;;;;;;;4990187;28;45583;-75
2022/05/07 14:37:34;;;;;;;;;1.67;1.67;;;;;;;;4993276;28;45441;-75
2022/05/07 14:40:28;;;;;;;;;3.75;3.00;;;;;;;;5000747;28;46075;-75
2022/05/07 14:42:45;;;;;;;;;1.67;1.67;;;;;;;;4997830;28;45823;-76
2022/05/07 14:45:11;;;;;;;;;2.00;2.00;;;;;;;;4997585;28;45436;-75
2022/05/07 14:47:37;;;;;;;;;2.00;2.00;;;;;;;;4994592;28;45409;-75
2022/05/07 14:50:06;;;;;;;;;4.50;2.75;;;;;;;;4989515;28;46332;-75
2022/05/07 14:52:31;;;;;;;;;3.50;3.50;;;;;;;;4980000;28;45348;-75
2022/05/07 14:54:56;;;;;;;;;3.67;3.67;;;;;;;;4982941;28;45503;-75
2022/05/07 14:57:21;;;;;;;;;2.00;2.00;;;;;;;;4983442;28;46424;-75
2022/05/07 14:59:47;;;;;;;;;2.33;2.33;;;;;;;;4994536;28;45414;-76
2022/05/07 15:02:15;;;;;;;;;2.00;2.00;;;;;;;;4986614;28;45528;-75
2022/05/07 15:04:40;;;;;;;;;2.00;2.00;;;;;;;;4990977;28;45341;-75
2022/05/07 15:07:05;;;;;;;;;2.00;2.00;;;;;;;;4983984;28;45318;-75
2022/05/07 15:12:14;;;;;;;;;3.00;3.00;;;;;;;;4987881;28;45362;-75
2022/05/07 15:14:39;;;;;;;;;2.33;2.33;;;;;;;;4994216;28;45487;-74
2022/05/07 15:17:04;;;;;;;;;2.00;2.00;;;;;;;;5004871;28;45488;-75
2022/05/07 15:19:30;;;;;;;;;2.00;2.00;;;;;;;;4994975;28;46328;-75
2022/05/07 15:21:56;;;;;;;;;2.33;2.00;;;;;;;;4992847;28;46099;-75
2022/05/07 15:24:21;;;;;;;;;1.33;1.33;;;;;;;;4989622;28;45507;-75
2022/05/07 15:26:46;;;;;;;;;2.00;2.00;;;;;;;;4990494;28;45580;-75
2022/05/07 15:29:12;;;;;;;;;2.00;2.00;;;;;;;;5008837;28;48373;-75
2022/05/07 15:31:38;;;;;;;;;3.00;3.00;;;;;;;;4978649;28;45365;-75
2022/05/07 15:36:50;;;;;;;;;4.50;3.75;;;;;;;;4986011;28;45547;-75
2022/05/07 15:39:16;;;;;;;;;1.33;1.33;;;;;;;;4988882;28;45527;-75
2022/05/07 15:41:42;;;;;;;;;1.25;1.25;;;;;;;;4994130;28;45869;-75
2022/05/07 15:44:07;;;;;;;;;2.00;2.00;;;;;;;;4978571;28;45526;-75
2022/05/07 15:46:35;;;;;;;;;3.00;2.00;;;;;;;;4996591;28;45336;-75
2022/05/07 15:49:00;;;;;;;;;2.75;2.75;;;;;;;;4997029;28;46516;-75